Time;durP1;ratioP1;P1;durP2;ratioP2;P2;SDS_P1;SDS_P2;PMS_P1;PMS_P2;Temp;Humidity;BMP_temperature;BMP_pressure;BME280_temperature;BME280_humidity;BME280_pressure;Samples;Min_cycle;Max_cycle;Signal;HPM_P1;HPM_P2
2022/06/15 00:01:19;;;;;;;6.17;5.30;;;19.70;78.40;;;;;;5034405;28;20450;-57
2022/06/15 00:03:47;;;;;;;4.87;4.27;;;19.60;79.10;;;;;;5034546;28;20550;-57
2022/06/15 00:06:17;;;;;;;5.90;4.50;;;19.50;79.60;;;;;;5034361;28;20537;-57
2022/06/15 00:08:47;;;;;;;4.43;4.03;;;19.50;80.50;;;;;;5034194;28;20469;-57
2022/06/15 00:11:16;;;;;;;6.50;5.03;;;19.60;80.10;;;;;;5033938;28;20436;-57
2022/06/15 00:13:44;;;;;;;5.80;4.67;;;19.60;80.90;;;;;;5033937;28;20556;-57
2022/06/15 00:16:12;;;;;;;5.03;4.30;;;19.50;81.00;;;;;;5033818;28;20461;-57
2022/06/15 00:18:40;;;;;;;5.37;4.67;;;19.50;81.10;;;;;;5033875;28;20450;-57
2022/06/15 00:21:08;;;;;;;5.00;4.40;;;19.20;81.30;;;;;;5033653;28;20442;-57
2022/06/15 00:23:37;;;;;;;4.20;3.80;;;19.00;82.80;;;;;;5033864;28;20830;-57
2022/06/15 00:26:06;;;;;;;5.20;4.40;;;19.20;82.40;;;;;;5025330;28;20451;-56
2022/06/15 00:28:34;;;;;;;4.47;4.07;;;19.30;83.40;;;;;;5014097;28;20435;-57
2022/06/15 00:31:01;;;;;;;4.97;4.47;;;19.20;82.70;;;;;;5013783;28;20823;-56
2022/06/15 00:33:29;;;;;;;5.30;4.13;;;19.20;83.00;;;;;;5014230;28;20483;-56
2022/06/15 00:35:58;;;;;;;4.97;4.47;;;19.00;84.00;;;;;;5014103;28;20509;-56
2022/06/15 00:38:27;;;;;;;4.80;4.30;;;18.80;84.70;;;;;;5014188;28;20463;-56
2022/06/15 00:40:56;;;;;;;6.47;4.33;;;18.80;85.70;;;;;;5013705;28;20455;-57
2022/06/15 00:43:35;;;;;;;5.07;4.67;;;18.80;86.60;;;;;;5013766;28;20451;-57
2022/06/15 00:46:07;;;;;;;5.33;4.13;;;18.90;87.00;;;;;;5014096;28;20789;-56
2022/06/15 00:48:34;;;;;;;5.60;4.60;;;18.90;87.30;;;;;;5013485;28;20416;-57
2022/06/15 00:51:01;;;;;;;4.90;4.03;;;18.80;87.00;;;;;;5013645;28;20938;-57
2022/06/15 00:53:29;;;;;;;7.33;4.30;;;18.70;88.00;;;;;;5013738;28;20566;-57
2022/06/15 00:55:58;;;;;;;5.47;5.07;;;18.60;89.10;;;;;;5013469;28;20938;-57
2022/06/15 00:58:25;;;;;;;5.20;4.73;;;18.50;89.60;;;;;;5013824;28;20482;-57
2022/06/15 01:00:54;;;;;;;5.43;4.10;;;18.40;90.30;;;;;;5013644;28;21045;-57
2022/06/15 01:03:21;;;;;;;4.27;3.90;;;18.30;90.50;;;;;;5013740;28;20443;-57
2022/06/15 01:05:58;;;;;;;6.90;4.80;;;18.50;90.70;;;;;;5013529;28;20450;-57
2022/06/15 01:08:35;;;;;;;5.50;4.10;;;18.50;90.90;;;;;;5013309;28;20549;-56
2022/06/15 01:11:20;;;;;;;5.53;5.00;;;18.60;91.00;;;;;;5013827;28;20435;-56
2022/06/15 01:14:08;;;;;;;5.73;4.30;;;18.60;91.40;;;;;;5012635;28;20515;-57
2022/06/15 01:16:42;;;;;;;6.77;5.00;;;18.60;91.60;;;;;;5013238;28;20918;-56
2022/06/15 01:19:32;;;;;;;4.73;4.33;;;18.60;92.10;;;;;;5013424;28;20457;-56
2022/06/15 01:22:10;;;;;;;4.73;4.07;;;18.30;92.10;;;;;;5013387;28;20802;-56
2022/06/15 01:25:01;;;;;;;5.37;4.83;;;18.20;92.50;;;;;;5013380;28;20918;-57
2022/06/15 01:28:01;;;;;;;5.20;4.23;;;18.20;93.00;;;;;;5013257;28;20984;-57
2022/06/15 01:30:40;;;;;;;7.07;4.80;;;18.20;92.70;;;;;;5013149;28;20462;-56
2022/06/15 01:33:23;;;;;;;6.30;4.77;;;18.10;93.10;;;;;;5014488;28;20561;-56
2022/06/15 01:36:00;;;;;;;6.97;5.10;;;17.90;93.20;;;;;;5017291;28;20432;-57
2022/06/15 01:38:34;;;;;;;5.07;4.53;;;18.00;93.60;;;;;;5017187;28;20549;-57
2022/06/15 01:41:10;;;;;;;5.63;4.80;;;17.90;94.00;;;;;;5017344;28;20442;-57
2022/06/15 01:43:42;;;;;;;4.60;4.20;;;17.80;94.40;;;;;;5017846;28;20513;-56
2022/06/15 01:46:11;;;;;;;4.93;4.40;;;17.80;95.00;;;;;;5017242;28;20463;-57
2022/06/15 01:48:40;;;;;;;6.53;5.20;;;17.80;95.20;;;;;;5017043;28;20463;-56
2022/06/15 01:51:15;;;;;;;5.10;4.30;;;17.80;95.30;;;;;;5017114;28;20451;-57
2022/06/15 01:53:47;;;;;;;6.17;4.90;;;17.70;95.80;;;;;;5016881;28;20477;-57
2022/06/15 01:56:20;;;;;;;6.17;5.10;;;17.70;96.20;;;;;;5026740;28;20452;-57
2022/06/15 01:58:52;;;;;;;5.83;5.20;;;17.70;96.20;;;;;;5036850;28;20818;-56
2022/06/15 02:01:29;;;;;;;6.00;4.80;;;17.80;96.80;;;;;;5036879;28;20427;-56
2022/06/15 02:04:05;;;;;;;5.57;5.07;;;17.80;97.00;;;;;;5036708;28;20437;-56
2022/06/15 02:06:39;;;;;;;7.10;5.37;;;17.90;97.00;;;;;;5036448;28;20434;-56
2022/06/15 02:09:14;;;;;;;6.37;4.60;;;18.00;97.30;;;;;;5036598;28;20466;-57
2022/06/15 02:11:43;;;;;;;6.40;5.03;;;17.80;97.20;;;;;;5036431;28;20916;-57
2022/06/15 02:14:17;;;;;;;6.00;4.60;;;17.70;97.40;;;;;;5036141;28;20935;-57
2022/06/15 02:16:51;;;;;;;6.53;5.10;;;17.70;98.00;;;;;;5036427;28;20430;-56
2022/06/15 02:19:24;;;;;;;6.00;5.50;;;17.70;97.80;;;;;;5036459;28;20545;-57
2022/06/15 02:21:55;;;;;;;5.33;4.83;;;17.80;97.60;;;;;;5036369;28;20514;-56
2022/06/15 02:24:23;;;;;;;10.83;4.87;;;17.60;97.50;;;;;;5036370;28;20450;-56
2022/06/15 02:26:51;;;;;;;4.90;4.50;;;17.60;98.20;;;;;;5035732;28;20450;-56
2022/06/15 02:29:22;;;;;;;5.20;4.67;;;17.60;98.40;;;;;;5036262;28;20548;-56
2022/06/15 02:31:50;;;;;;;5.80;4.87;;;17.60;98.70;;;;;;5036122;28;20466;-57
2022/06/15 02:34:18;;;;;;;6.00;4.77;;;17.70;98.60;;;;;;5036143;28;20557;-56
2022/06/15 02:36:45;;;;;;;4.87;4.47;;;17.60;97.80;;;;;;5035705;28;20465;-56
2022/06/15 02:39:12;;;;;;;5.37;4.83;;;17.40;98.40;;;;;;5036081;28;20484;-56
2022/06/15 02:41:39;;;;;;;5.17;4.67;;;17.40;99.00;;;;;;5035692;28;20449;-57
2022/06/15 02:44:09;;;;;;;6.07;4.50;;;17.40;99.10;;;;;;5035481;28;20529;-56
2022/06/15 02:46:41;;;;;;;7.77;4.57;;;17.40;98.80;;;;;;5035908;28;20484;-57
2022/06/15 02:49:10;;;;;;;6.03;5.53;;;17.30;98.70;;;;;;5035854;28;20466;-56
2022/06/15 02:51:42;;;;;;;5.53;4.43;;;17.10;99.20;;;;;;5035772;28;20452;-57
2022/06/15 02:54:15;;;;;;;6.23;4.63;;;17.20;99.60;;;;;;5035787;28;20476;-57
2022/06/15 02:56:43;;;;;;;8.27;5.00;;;17.20;99.90;;;;;;5035240;28;20484;-57
2022/06/15 02:59:10;;;;;;;8.77;5.10;;;17.30;99.90;;;;;;5035830;28;20470;-56
2022/06/15 03:01:37;;;;;;;7.53;4.63;;;17.30;99.90;;;;;;5035574;28;20545;-56
2022/06/15 03:04:04;;;;;;;6.57;4.83;;;17.30;99.90;;;;;;5035661;28;20530;-56
2022/06/15 03:06:33;;;;;;;8.43;5.33;;;17.00;99.90;;;;;;5035220;28;20454;-56
2022/06/15 03:09:01;;;;;;;9.07;5.27;;;17.10;99.90;;;;;;5035704;28;20462;-56
2022/06/15 03:11:28;;;;;;;5.93;5.40;;;16.90;99.90;;;;;;5035311;28;20433;-56
2022/06/15 03:13:56;;;;;;;5.60;4.57;;;16.90;99.90;;;;;;5035048;28;20912;-56
2022/06/15 03:16:23;;;;;;;8.50;5.23;;;16.90;99.90;;;;;;5035331;28;20481;-57
2022/06/15 03:18:50;;;;;;;5.90;5.33;;;17.00;99.90;;;;;;5034894;28;20999;-57
2022/06/15 03:21:18;;;;;;;7.37;5.67;;;17.00;99.90;;;;;;5034922;28;20450;-57
2022/06/15 03:23:46;;;;;;;11.40;5.43;;;17.00;99.90;;;;;;5035387;28;20508;-56
2022/06/15 03:26:14;;;;;;;11.40;6.03;;;17.00;99.90;;;;;;5034703;28;20537;-56
2022/06/15 03:28:41;;;;;;;8.73;5.57;;;17.10;99.90;;;;;;5035172;28;20791;-56
2022/06/15 03:31:08;;;;;;;8.63;5.70;;;17.10;99.90;;;;;;5034748;28;20976;-56
2022/06/15 03:33:35;;;;;;;6.23;5.30;;;17.00;99.90;;;;;;5035025;28;20477;-56
2022/06/15 03:36:04;;;;;;;5.57;5.00;;;17.00;99.90;;;;;;5034909;28;20457;-56
2022/06/15 03:38:32;;;;;;;6.87;5.23;;;17.10;99.90;;;;;;5035004;28;20462;-56
2022/06/15 03:41:01;;;;;;;6.10;5.43;;;17.10;99.90;;;;;;5034821;28;20450;-57
2022/06/15 03:43:28;;;;;;;8.37;7.30;;;17.00;99.90;;;;;;5034909;28;20545;-56
2022/06/15 03:45:56;;;;;;;6.10;5.50;;;16.60;99.90;;;;;;5034524;28;20431;-56
2022/06/15 03:48:24;;;;;;;7.30;6.00;;;16.50;99.90;;;;;;5034378;28;20481;-56
2022/06/15 03:50:51;;;;;;;6.93;6.33;;;16.60;99.90;;;;;;5034598;28;20896;-57
2022/06/15 03:53:18;;;;;;;6.03;5.17;;;16.50;99.90;;;;;;5034351;28;20995;-57
2022/06/15 03:55:45;;;;;;;5.17;4.60;;;16.70;99.90;;;;;;5033552;28;20530;-56
2022/06/15 03:58:17;;;;;;;5.33;4.80;;;16.80;99.90;;;;;;5034237;28;20534;-56
2022/06/15 04:00:45;;;;;;;7.80;5.30;;;16.80;99.90;;;;;;5034240;28;20457;-57
2022/06/15 04:03:12;;;;;;;7.27;5.47;;;16.80;99.90;;;;;;5034630;28;20442;-56
2022/06/15 04:05:42;;;;;;;6.37;4.90;;;16.90;99.90;;;;;;5034444;28;20450;-56
2022/06/15 04:10:59;;;;;;;8.43;5.80;;;16.80;99.90;;;;;;5034230;28;20492;-56
2022/06/15 04:13:28;;;;;;;6.50;5.93;;;16.80;99.90;;;;;;5033796;28;21059;-57
2022/06/15 04:15:55;;;;;;;10.00;5.70;;;16.80;99.90;;;;;;5033835;28;20482;-56
2022/06/15 04:18:22;;;;;;;5.40;4.87;;;16.80;99.90;;;;;;5033843;28;20490;-56
2022/06/15 04:20:50;;;;;;;6.17;5.27;;;16.80;99.90;;;;;;5033944;28;20472;-56
2022/06/15 04:23:19;;;;;;;6.40;5.80;;;16.80;99.90;;;;;;5034172;28;20488;-57
2022/06/15 04:25:51;;;;;;;5.73;5.20;;;16.90;99.90;;;;;;5033703;28;21012;-57
2022/06/15 04:28:20;;;;;;;8.00;5.60;;;16.90;99.90;;;;;;5034113;28;20438;-57
2022/06/15 04:30:49;;;;;;;6.87;5.40;;;16.80;99.90;;;;;;5033729;28;20557;-57
2022/06/15 04:33:17;;;;;;;9.10;5.47;;;16.80;99.90;;;;;;5033521;28;20902;-57
2022/06/15 04:35:45;;;;;;;6.33;5.47;;;16.90;99.90;;;;;;5033806;28;20446;-56
2022/06/15 04:38:13;;;;;;;5.57;4.80;;;16.90;99.90;;;;;;5033710;28;20561;-56
2022/06/15 04:40:41;;;;;;;7.47;5.50;;;16.80;99.90;;;;;;5033625;28;20832;-57
2022/06/15 04:43:09;;;;;;;6.17;5.60;;;16.90;99.90;;;;;;5033477;28;20454;-56
2022/06/15 04:45:37;;;;;;;5.40;4.60;;;17.00;99.90;;;;;;5033379;28;20454;-57
2022/06/15 04:48:06;;;;;;;5.63;5.13;;;17.00;99.90;;;;;;5033331;28;20545;-56
2022/06/15 04:50:34;;;;;;;6.77;5.27;;;17.10;99.90;;;;;;5033491;28;20476;-57
2022/06/15 04:53:02;;;;;;;6.53;4.93;;;17.10;99.90;;;;;;5033601;28;20529;-56
2022/06/15 04:55:30;;;;;;;5.80;5.20;;;17.10;99.90;;;;;;5033441;28;20501;-57
2022/06/15 04:57:59;;;;;;;5.37;4.83;;;17.10;99.90;;;;;;5033354;28;20442;-56
2022/06/15 05:00:28;;;;;;;6.37;5.77;;;17.20;99.90;;;;;;5033280;28;20496;-57
2022/06/15 05:02:56;;;;;;;5.60;5.10;;;17.30;99.90;;;;;;5033413;28;20450;-57
2022/06/15 05:05:25;;;;;;;6.93;4.83;;;17.40;99.90;;;;;;5033068;28;20496;-57
2022/06/15 05:07:53;;;;;;;5.57;5.07;;;17.50;99.90;;;;;;5033027;28;20492;-57
2022/06/15 05:10:22;;;;;;;6.77;5.17;;;17.50;99.90;;;;;;5033034;28;20536;-57
2022/06/15 05:12:49;;;;;;;5.93;4.83;;;17.50;99.90;;;;;;5032762;28;20569;-57
2022/06/15 05:15:17;;;;;;;8.70;4.90;;;17.60;99.90;;;;;;5033319;28;20477;-56
2022/06/15 05:17:47;;;;;;;8.23;5.30;;;17.70;99.90;;;;;;5033150;28;20439;-56
2022/06/15 05:20:16;;;;;;;9.23;6.30;;;17.70;99.90;;;;;;5033131;28;20557;-56
2022/06/15 05:22:51;;;;;;;6.73;5.60;;;17.80;99.90;;;;;;5032946;28;20955;-55
2022/06/15 05:25:18;;;;;;;6.07;4.80;;;17.90;99.90;;;;;;5033032;28;20430;-55
2022/06/15 05:27:45;;;;;;;5.57;5.13;;;18.00;99.90;;;;;;5033034;28;20449;-56
2022/06/15 05:30:14;;;;;;;6.93;5.70;;;18.10;99.90;;;;;;5033013;28;20502;-56
2022/06/15 05:32:41;;;;;;;7.33;5.40;;;18.20;99.90;;;;;;5033114;28;20581;-56
2022/06/15 05:35:09;;;;;;;11.50;4.97;;;18.20;99.90;;;;;;5032696;28;20564;-56
2022/06/15 05:37:36;;;;;;;8.47;5.37;;;18.30;99.90;;;;;;5032817;28;20456;-56
2022/06/15 05:40:07;;;;;;;12.30;5.37;;;18.40;99.90;;;;;;5033103;28;20493;-55
2022/06/15 05:42:35;;;;;;;11.87;6.27;;;18.40;99.90;;;;;;5033317;28;20477;-56
2022/06/15 05:45:03;;;;;;;7.80;6.10;;;18.50;99.90;;;;;;5033031;28;20868;-61
2022/06/15 05:47:30;;;;;;;18.27;6.90;;;18.60;99.90;;;;;;5032604;28;20458;-56
2022/06/15 05:49:59;;;;;;;8.03;6.03;;;18.70;99.90;;;;;;5032629;28;20553;-56
2022/06/15 05:52:26;;;;;;;12.73;6.77;;;18.80;99.90;;;;;;5032615;28;20512;-56
2022/06/15 05:54:54;;;;;;;8.27;6.60;;;18.90;99.90;;;;;;5032373;28;20479;-56
2022/06/15 05:57:24;;;;;;;7.77;6.03;;;18.90;99.90;;;;;;5032548;28;20950;-56
2022/06/15 05:59:53;;;;;;;11.10;6.30;;;19.00;99.90;;;;;;5033053;28;20488;-56
2022/06/15 06:02:22;;;;;;;6.30;5.63;;;19.00;99.90;;;;;;5032688;28;20450;-56
2022/06/15 06:04:50;;;;;;;8.53;6.23;;;19.10;99.90;;;;;;5032567;28;20449;-56
2022/06/15 06:07:17;;;;;;;12.23;6.57;;;19.10;99.90;;;;;;5032766;28;20450;-56
2022/06/15 06:09:45;;;;;;;10.90;6.70;;;19.20;99.90;;;;;;5032847;28;20510;-56
2022/06/15 06:12:12;;;;;;;6.97;5.50;;;19.20;99.90;;;;;;5032692;28;20456;-56
2022/06/15 06:14:42;;;;;;;8.00;7.10;;;19.30;99.90;;;;;;5032142;28;20489;-56
2022/06/15 06:17:12;;;;;;;9.83;6.40;;;19.40;99.90;;;;;;5032758;28;20454;-56
2022/06/15 06:19:39;;;;;;;8.47;6.30;;;19.50;99.90;;;;;;5033977;28;20481;-56
2022/06/15 06:22:06;;;;;;;7.90;6.40;;;19.60;99.90;;;;;;5036243;28;20461;-56
2022/06/15 06:24:33;;;;;;;8.50;6.57;;;19.60;99.90;;;;;;5036060;28;20469;-56
2022/06/15 06:27:01;;;;;;;12.77;7.03;;;19.70;99.90;;;;;;5035706;28;20537;-56
2022/06/15 06:29:30;;;;;;;11.57;6.50;;;19.80;99.90;;;;;;5036058;28;20513;-56
2022/06/15 06:32:00;;;;;;;8.50;5.90;;;19.80;99.90;;;;;;5035793;28;20533;-56
2022/06/15 06:34:29;;;;;;;9.53;6.30;;;19.90;99.90;;;;;;5035735;28;20478;-56
2022/06/15 06:36:57;;;;;;;7.57;5.90;;;19.90;99.90;;;;;;5035720;28;20450;-56
2022/06/15 06:39:27;;;;;;;10.50;6.00;;;20.10;99.90;;;;;;5035825;28;20492;-56
2022/06/15 06:41:55;;;;;;;7.10;5.43;;;20.20;99.90;;;;;;5035317;28;20869;-56
2022/06/15 06:44:23;;;;;;;7.73;6.47;;;20.30;99.90;;;;;;5035595;28;20818;-56
2022/06/15 06:46:52;;;;;;;6.70;6.10;;;20.40;99.90;;;;;;5035848;28;20540;-56
2022/06/15 06:49:22;;;;;;;14.17;5.43;;;20.40;99.90;;;;;;5035078;28;20470;-56
2022/06/15 06:51:50;;;;;;;7.50;5.50;;;20.50;99.90;;;;;;5035972;28;20557;-55
2022/06/15 06:54:20;;;;;;;5.27;4.67;;;20.60;99.60;;;;;;5035067;28;20564;-55
2022/06/15 06:56:47;;;;;;;6.00;4.77;;;20.70;99.70;;;;;;5034865;28;20493;-55
2022/06/15 06:59:15;;;;;;;7.70;4.47;;;21.00;99.20;;;;;;5035127;28;20851;-56
2022/06/15 07:01:45;;;;;;;7.80;4.93;;;21.60;98.30;;;;;;5035109;28;20450;-56
2022/06/15 07:04:14;;;;;;;8.40;5.37;;;22.40;98.00;;;;;;5035153;28;20953;-56
2022/06/15 07:06:43;;;;;;;9.03;5.40;;;23.30;97.20;;;;;;5035346;28;20446;-56
2022/06/15 07:09:11;;;;;;;5.50;4.93;;;23.70;96.20;;;;;;5035464;28;20514;-56
2022/06/15 07:11:41;;;;;;;5.53;4.50;;;24.10;95.10;;;;;;5034910;28;20848;-56
2022/06/15 07:14:08;;;;;;;4.53;4.03;;;24.30;94.50;;;;;;5034440;28;20486;-56
2022/06/15 07:16:39;;;;;;;6.40;5.10;;;24.70;93.50;;;;;;5035540;28;20502;-55
2022/06/15 07:19:06;;;;;;;7.60;4.23;;;25.20;92.80;;;;;;5034724;28;20482;-56
2022/06/15 07:21:34;;;;;;;9.73;5.70;;;25.70;92.80;;;;;;5035148;28;20476;-56
2022/06/15 07:24:02;;;;;;;10.77;5.80;;;26.30;91.60;;;;;;5034933;28;20450;-56
2022/06/15 07:26:33;;;;;;;5.27;4.43;;;26.10;90.90;;;;;;5035049;28;20446;-56
2022/06/15 07:29:01;;;;;;;8.00;4.53;;;26.30;90.40;;;;;;5034383;28;20881;-57
2022/06/15 07:31:31;;;;;;;4.87;3.93;;;26.30;90.00;;;;;;5034321;28;20493;-56
2022/06/15 07:33:58;;;;;;;6.67;4.80;;;26.60;88.00;;;;;;5034192;28;20486;-56
2022/06/15 07:36:26;;;;;;;8.83;4.30;;;27.30;87.80;;;;;;5034532;28;20537;-56
2022/06/15 07:38:55;;;;;;;6.90;5.20;;;27.80;85.60;;;;;;5034648;28;20477;-56
2022/06/15 07:41:25;;;;;;;4.90;3.70;;;27.80;86.40;;;;;;5034508;28;20446;-56
2022/06/15 07:43:53;;;;;;;4.73;3.70;;;27.90;83.80;;;;;;5034127;28;20504;-57
2022/06/15 07:46:20;;;;;;;6.43;4.00;;;28.40;84.30;;;;;;5034297;28;20450;-56
2022/06/15 07:51:35;;;;;;;7.90;3.80;;;28.20;78.90;;;;;;5034365;28;20500;-56
2022/06/15 07:54:04;;;;;;;4.30;3.90;;;28.10;79.00;;;;;;5033953;28;20521;-56
2022/06/15 07:56:34;;;;;;;6.20;4.30;;;29.10;78.70;;;;;;5033997;28;20446;-57
2022/06/15 07:59:01;;;;;;;9.00;4.23;;;29.20;76.70;;;;;;5034622;28;20470;-57
2022/06/15 08:01:29;;;;;;;4.73;4.30;;;29.60;84.80;;;;;;5034163;28;20541;-57
2022/06/15 08:03:56;;;;;;;5.40;4.50;;;29.60;84.90;;;;;;5033905;28;20461;-57
2022/06/15 08:06:24;;;;;;;4.27;3.87;;;29.90;75.50;;;;;;5034325;28;20468;-57
2022/06/15 08:08:51;;;;;;;5.73;4.50;;;30.10;72.80;;;;;;5034099;28;20573;-56
2022/06/15 08:11:19;;;;;;;4.40;3.80;;;29.80;70.70;;;;;;5034107;28;20937;-56
2022/06/15 08:13:48;;;;;;;5.90;4.17;;;30.10;71.60;;;;;;5033392;28;20517;-57
2022/06/15 08:16:16;;;;;;;6.30;4.07;;;30.50;69.70;;;;;;5034015;28;20791;-57
2022/06/15 08:18:47;;;;;;;9.20;4.33;;;30.70;68.80;;;;;;5033641;28;20528;-57
2022/06/15 08:21:20;;;;;;;7.33;4.47;;;30.30;69.90;;;;;;5033734;28;20435;-57
2022/06/15 08:23:50;;;;;;;6.33;4.00;;;30.80;68.50;;;;;;5034114;28;20426;-57
2022/06/15 08:26:21;;;;;;;6.33;4.23;;;30.90;68.30;;;;;;5034100;28;20441;-57
2022/06/15 08:28:54;;;;;;;4.53;3.40;;;31.30;68.00;;;;;;5034335;28;20496;-57
2022/06/15 08:31:22;;;;;;;6.40;4.20;;;31.60;67.20;;;;;;5033735;28;20434;-57
2022/06/15 08:33:49;;;;;;;6.27;3.90;;;31.30;67.00;;;;;;5033832;28;20481;-57
2022/06/15 08:36:16;;;;;;;5.13;3.63;;;31.50;65.00;;;;;;5033674;28;20488;-57
2022/06/15 08:38:44;;;;;;;4.13;3.70;;;31.70;65.60;;;;;;5033717;28;20485;-57
2022/06/15 08:41:21;;;;;;;4.37;3.97;;;31.90;63.00;;;;;;5033589;28;20896;-57
2022/06/15 08:44:11;;;;;;;7.43;3.80;;;32.00;62.40;;;;;;5033354;28;20849;-57
2022/06/15 08:46:49;;;;;;;6.57;4.00;;;31.90;60.60;;;;;;5033353;28;20901;-57
2022/06/15 08:49:31;;;;;;;5.57;4.00;;;31.40;60.80;;;;;;5033351;28;20501;-57
2022/06/15 08:52:02;;;;;;;5.70;3.63;;;31.50;64.50;;;;;;5033295;28;20433;-57
2022/06/15 08:54:32;;;;;;;4.60;4.00;;;32.70;62.10;;;;;;5032939;28;20485;-57
2022/06/15 08:57:05;;;;;;;8.13;4.10;;;32.00;59.40;;;;;;5033278;28;20552;-57
2022/06/15 08:59:42;;;;;;;4.10;3.77;;;32.40;60.80;;;;;;5033133;28;20533;-57
2022/06/15 09:02:17;;;;;;;7.97;3.87;;;32.80;62.70;;;;;;5032863;28;20468;-57
2022/06/15 09:04:54;;;;;;;6.10;3.90;;;32.60;60.80;;;;;;5033404;28;20789;-56
2022/06/15 09:07:47;;;;;;;5.57;3.93;;;32.70;60.00;;;;;;5032973;28;20438;-58
2022/06/15 09:10:30;;;;;;;6.00;4.63;;;32.60;58.80;;;;;;5032721;28;20469;-57
2022/06/15 09:13:09;;;;;;;7.07;4.23;;;32.80;60.10;;;;;;5032677;28;20477;-57
2022/06/15 09:15:48;;;;;;;9.00;5.13;;;33.00;60.20;;;;;;5032791;28;20535;-57
2022/06/15 09:18:21;;;;;;;9.73;4.40;;;33.20;59.60;;;;;;5032670;28;20456;-57
2022/06/15 09:20:53;;;;;;;11.00;4.00;;;33.30;58.10;;;;;;5032572;28;20478;-57
2022/06/15 09:23:25;;;;;;;5.47;4.70;;;33.10;58.80;;;;;;5032303;28;20819;-57
2022/06/15 09:25:56;;;;;;;4.67;3.93;;;33.10;58.10;;;;;;5032491;28;20473;-57
2022/06/15 09:28:30;;;;;;;6.50;3.90;;;33.20;58.00;;;;;;5033294;28;20515;-57
2022/06/15 09:31:03;;;;;;;7.23;4.53;;;33.10;58.00;;;;;;5033246;28;20838;-57
2022/06/15 09:33:39;;;;;;;5.33;4.60;;;33.10;57.00;;;;;;5032978;28;20520;-57
2022/06/15 09:36:11;;;;;;;7.33;4.87;;;32.60;57.00;;;;;;5032621;28;20559;-58
2022/06/15 09:38:38;;;;;;;4.77;4.27;;;33.50;58.60;;;;;;5032954;28;20453;-57
2022/06/15 09:41:13;;;;;;;5.17;3.73;;;33.50;56.60;;;;;;5033039;28;20476;-57
2022/06/15 09:43:47;;;;;;;4.63;4.10;;;33.90;58.30;;;;;;5032943;28;20498;-58
2022/06/15 09:46:22;;;;;;;5.50;4.30;;;34.40;57.40;;;;;;5032784;28;20904;-57
2022/06/15 09:49:03;;;;;;;7.73;4.90;;;33.00;55.90;;;;;;5032387;28;20472;-58
2022/06/15 09:51:43;;;;;;;5.50;4.87;;;33.80;57.10;;;;;;5032653;28;20426;-57
2022/06/15 09:54:19;;;;;;;5.80;4.70;;;34.20;56.70;;;;;;5033999;28;20513;-57
2022/06/15 09:56:46;;;;;;;7.50;4.10;;;33.60;55.20;;;;;;5036066;28;20516;-57
2022/06/15 09:59:17;;;;;;;9.50;3.80;;;33.80;56.70;;;;;;5036481;28;20556;-57
2022/06/15 10:01:47;;;;;;;5.63;5.03;;;34.50;55.60;;;;;;5036195;28;20444;-57
2022/06/15 10:04:20;;;;;;;6.60;3.90;;;34.00;54.80;;;;;;5036330;28;20453;-57
2022/06/15 10:06:52;;;;;;;6.00;4.40;;;34.00;54.80;;;;;;5036030;28;20520;-58
2022/06/15 10:09:26;;;;;;;4.03;3.67;;;33.30;55.10;;;;;;5036712;28;20825;-57
2022/06/15 10:11:55;;;;;;;5.37;3.70;;;34.20;55.30;;;;;;5036108;28;20430;-58
2022/06/15 10:14:27;;;;;;;5.50;3.90;;;34.20;54.20;;;;;;5035770;28;20532;-57
2022/06/15 10:17:00;;;;;;;6.03;4.00;;;34.20;55.50;;;;;;5036187;28;20460;-57
2022/06/15 10:19:30;;;;;;;4.60;4.17;;;34.90;53.90;;;;;;5035833;28;20999;-57
2022/06/15 10:22:00;;;;;;;5.00;3.77;;;34.00;53.90;;;;;;5035928;28;20521;-57
2022/06/15 10:24:31;;;;;;;4.00;3.60;;;34.60;54.60;;;;;;5035737;28;20932;-57
2022/06/15 10:27:32;;;;;;;4.10;3.70;;;34.30;54.10;;;;;;5036205;28;20803;-57
2022/06/15 10:30:13;;;;;;;4.83;4.07;;;34.70;53.80;;;;;;5035990;28;20529;-57
2022/06/15 10:32:59;;;;;;;8.03;4.13;;;34.40;54.20;;;;;;5035752;28;20430;-57
2022/06/15 10:35:28;;;;;;;5.97;4.00;;;35.10;53.60;;;;;;5035827;28;20470;-57
2022/06/15 10:37:59;;;;;;;4.00;3.40;;;35.40;51.80;;;;;;5035746;28;21037;-57
2022/06/15 10:40:29;;;;;;;4.43;3.00;;;35.10;49.20;;;;;;5035709;28;20476;-57
2022/06/15 10:43:02;;;;;;;2.80;2.60;;;35.10;48.40;;;;;;5035610;28;20440;-56
2022/06/15 10:45:33;;;;;;;3.00;2.70;;;35.10;48.00;;;;;;5035805;28;20456;-57
2022/06/15 10:48:06;;;;;;;3.53;3.23;;;35.10;49.00;;;;;;5035627;28;20489;-57
2022/06/15 10:50:42;;;;;;;5.33;2.83;;;35.00;47.70;;;;;;5035791;28;20469;-57
2022/06/15 10:53:27;;;;;;;3.80;3.40;;;35.30;47.80;;;;;;5035587;28;20457;-57
2022/06/15 11:04:29;;;;;;;3.50;3.20;;;33.50;48.40;;;;;;5034945;28;20769;-57
2022/06/15 11:07:04;;;;;;;3.40;3.10;;;33.90;48.10;;;;;;5034801;28;20430;-57
2022/06/15 11:09:34;;;;;;;3.17;2.87;;;34.20;46.80;;;;;;5035535;28;20480;-57
2022/06/15 11:12:08;;;;;;;3.63;3.33;;;33.80;47.90;;;;;;5034960;28;20488;-57
2022/06/15 11:14:47;;;;;;;5.33;3.50;;;34.40;49.10;;;;;;5034747;28;20513;-57
2022/06/15 11:20:27;;;;;;;3.13;2.83;;;35.10;48.20;;;;;;5034850;28;20970;-57
2022/06/15 11:23:03;;;;;;;5.20;3.97;;;35.10;48.20;;;;;;5035065;28;20452;-57
2022/06/15 11:25:39;;;;;;;7.03;3.57;;;35.30;48.10;;;;;;5034933;28;20438;-57
2022/06/15 11:28:13;;;;;;;4.43;3.17;;;35.50;48.80;;;;;;5034770;28;20789;-58
2022/06/15 11:30:47;;;;;;;5.63;3.50;;;35.30;48.10;;;;;;5034647;28;20466;-58
2022/06/15 11:33:20;;;;;;;3.43;2.97;;;34.60;47.40;;;;;;5035041;28;20516;-58
2022/06/15 11:36:02;;;;;;;6.67;3.37;;;34.60;48.20;;;;;;5034770;28;20466;-58
2022/06/15 11:38:39;;;;;;;3.70;3.20;;;35.20;47.50;;;;;;5034641;28;20531;-58
2022/06/15 11:41:19;;;;;;;4.23;3.40;;;34.60;46.60;;;;;;5035041;28;20464;-58
2022/06/15 11:43:50;;;;;;;6.90;3.70;;;34.90;46.70;;;;;;5034764;28;20426;-58
2022/06/15 11:46:32;;;;;;;3.43;2.97;;;34.60;46.90;;;;;;5034560;28;20426;-58
2022/06/15 11:49:22;;;;;;;4.23;3.27;;;34.40;46.90;;;;;;5034595;28;20519;-58
2022/06/15 11:52:05;;;;;;;5.30;3.50;;;34.40;47.20;;;;;;5034312;28;20434;-58
2022/06/15 11:54:52;;;;;;;4.43;3.10;;;34.50;46.80;;;;;;5034350;28;20437;-58
2022/06/15 11:57:29;;;;;;;4.63;3.13;;;34.80;47.10;;;;;;5034046;28;20438;-57
2022/06/15 12:00:14;;;;;;;3.63;2.60;;;34.80;47.00;;;;;;5034128;28;21026;-57
2022/06/15 12:02:56;;;;;;;5.03;3.60;;;34.80;47.20;;;;;;5033976;28;20466;-58
2022/06/15 12:05:34;;;;;;;3.80;3.40;;;35.00;46.20;;;;;;5034050;28;20434;-58
2022/06/15 12:08:12;;;;;;;4.83;3.67;;;34.80;46.70;;;;;;5034352;28;20454;-58
2022/06/15 12:10:45;;;;;;;4.83;3.20;;;34.40;47.10;;;;;;5034322;28;20930;-57
2022/06/15 12:13:36;;;;;;;4.07;3.30;;;34.30;47.20;;;;;;5033921;28;20575;-57
2022/06/15 12:16:08;;;;;;;3.10;2.80;;;34.70;47.40;;;;;;5033668;28;20466;-57
2022/06/15 12:18:54;;;;;;;3.60;3.30;;;35.00;47.00;;;;;;5033436;28;20470;-57
2022/06/15 12:21:27;;;;;;;3.60;3.20;;;35.00;47.00;;;;;;5033728;28;20516;-57
2022/06/15 12:24:04;;;;;;;3.70;3.30;;;34.70;47.10;;;;;;5034034;28;20454;-57
2022/06/15 12:26:46;;;;;;;4.17;3.37;;;33.50;46.70;;;;;;5033711;28;20426;-57
2022/06/15 12:29:28;;;;;;;4.27;3.47;;;33.70;48.60;;;;;;5033649;28;20469;-57
2022/06/15 12:32:22;;;;;;;3.77;3.47;;;34.00;48.30;;;;;;5033563;28;20430;-57
2022/06/15 12:34:56;;;;;;;5.10;3.80;;;34.40;48.60;;;;;;5033833;28;20481;-57
2022/06/15 12:37:29;;;;;;;5.10;3.30;;;34.60;46.90;;;;;;5033306;28;21062;-57
2022/06/15 12:40:12;;;;;;;4.30;2.97;;;34.60;47.50;;;;;;5033798;28;20472;-57
2022/06/15 12:42:43;;;;;;;4.40;3.53;;;34.40;47.70;;;;;;5033374;28;20445;-57
2022/06/15 12:45:19;;;;;;;3.43;3.13;;;34.00;47.20;;;;;;5033257;28;20411;-59
2022/06/15 12:47:58;;;;;;;7.87;3.90;;;33.90;47.80;;;;;;5033636;28;20576;-58
2022/06/15 12:50:54;;;;;;;3.70;3.30;;;34.00;47.40;;;;;;5033429;28;20462;-57
2022/06/15 12:53:33;;;;;;;3.90;2.83;;;33.90;46.60;;;;;;5033114;28;20427;-57
2022/06/15 12:56:11;;;;;;;4.00;3.60;;;33.80;46.80;;;;;;5033150;28;20469;-57
2022/06/15 12:58:53;;;;;;;5.40;2.80;;;33.40;46.90;;;;;;5033177;28;20501;-57
2022/06/15 13:01:23;;;;;;;3.00;2.80;;;33.30;46.90;;;;;;5033033;28;20526;-58
2022/06/15 13:04:15;;;;;;;3.80;2.90;;;33.10;47.30;;;;;;5032995;28;20438;-57
2022/06/15 13:06:43;;;;;;;4.07;3.17;;;33.10;47.30;;;;;;5033405;28;20465;-57
2022/06/15 13:09:21;;;;;;;3.43;3.13;;;33.60;47.60;;;;;;5033627;28;20514;-57
2022/06/15 13:11:59;;;;;;;3.80;3.03;;;33.90;48.70;;;;;;5032966;28;20998;-57
2022/06/15 13:14:31;;;;;;;3.50;3.20;;;34.40;48.60;;;;;;5032862;28;20481;-56
2022/06/15 13:17:08;;;;;;;4.00;3.60;;;34.40;47.20;;;;;;5033260;28;20466;-57
2022/06/15 13:19:39;;;;;;;4.60;4.00;;;34.10;48.30;;;;;;5032960;28;20442;-57
2022/06/15 13:22:14;;;;;;;3.60;3.30;;;33.80;48.00;;;;;;5033086;28;20430;-57
2022/06/15 13:24:57;;;;;;;4.10;3.40;;;32.90;48.00;;;;;;5032847;28;20430;-57
2022/06/15 13:27:33;;;;;;;11.93;4.50;;;32.80;48.60;;;;;;5032936;28;20442;-57